createdAt,value
2023-03-30T00:00:51.505Z,15.55
2023-03-30T00:03:22.875Z,15.65
2023-03-30T00:05:51.684Z,15.65
2023-03-30T00:08:21.012Z,15.71
2023-03-30T00:10:49.341Z,15.70
2023-03-30T00:13:18.057Z,15.69
2023-03-30T00:15:46.076Z,15.64
2023-03-30T00:18:14.483Z,15.63
2023-03-30T00:20:43.324Z,15.59
2023-03-30T00:23:11.281Z,15.66
2023-03-30T00:25:40.659Z,15.67
2023-03-30T00:28:08.516Z,15.74
2023-03-30T00:30:37.193Z,15.79
2023-03-30T00:33:05.362Z,15.81
2023-03-30T00:35:33.288Z,15.81
2023-03-30T00:38:03.184Z,15.83
2023-03-30T00:40:31.460Z,15.58
2023-03-30T00:43:01.679Z,15.83
2023-03-30T00:45:29.835Z,15.78
2023-03-30T00:48:00.389Z,15.75
2023-03-30T00:50:35.150Z,15.76
2023-03-30T00:53:07.128Z,15.77
2023-03-30T00:55:35.109Z,15.76
2023-03-30T00:58:04.414Z,15.80
2023-03-30T01:00:33.203Z,15.77
2023-03-30T01:03:03.054Z,15.85
2023-03-30T01:05:31.021Z,15.85
2023-03-30T01:07:59.289Z,15.84
2023-03-30T01:10:27.141Z,15.90
2023-03-30T01:12:55.080Z,15.93
2023-03-30T01:15:25.409Z,15.95
2023-03-30T01:18:08.884Z,15.96
2023-03-30T01:21:14.131Z,15.96
2023-03-30T01:24:20.223Z,15.90
2023-03-30T01:26:54.074Z,15.86
2023-03-30T01:29:40.019Z,15.83
2023-03-30T01:32:20.654Z,15.84
2023-03-30T01:35:10.302Z,15.74
2023-03-30T01:38:13.212Z,15.84
2023-03-30T01:40:43.128Z,15.85
2023-03-30T01:43:14.875Z,15.86
2023-03-30T01:45:44.634Z,15.74
2023-03-30T01:48:14.613Z,15.79
2023-03-30T01:50:43.215Z,15.74
2023-03-30T01:53:15.008Z,15.73
2023-03-30T01:55:45.536Z,15.73
2023-03-30T01:58:15.515Z,15.72
2023-03-30T02:00:43.682Z,15.72
2023-03-30T02:03:13.553Z,15.74
2023-03-30T02:05:41.815Z,15.74
2023-03-30T02:08:11.525Z,15.67
2023-03-30T02:10:39.381Z,15.78
2023-03-30T02:13:08.661Z,15.74
2023-03-30T02:15:38.177Z,15.62
2023-03-30T02:18:06.412Z,15.65
2023-03-30T02:20:34.646Z,15.72
2023-03-30T02:23:03.610Z,15.72
2023-03-30T02:25:32.148Z,15.73
2023-03-30T02:28:00.082Z,15.74
2023-03-30T02:30:32.432Z,15.73
2023-03-30T02:33:00.592Z,15.63
2023-03-30T02:35:46.386Z,15.58
2023-03-30T02:38:43.902Z,15.60
2023-03-30T02:41:17.575Z,15.59
2023-03-30T02:43:46.907Z,15.50
2023-03-30T02:46:26.811Z,15.48
2023-03-30T02:48:58.485Z,15.51
2023-03-30T02:51:38.085Z,15.58
2023-03-30T02:54:12.318Z,15.57
2023-03-30T02:56:42.778Z,15.58
2023-03-30T02:59:12.936Z,15.67
2023-03-30T03:01:43.839Z,15.68
2023-03-30T03:04:11.804Z,15.65
2023-03-30T03:06:39.764Z,15.63
2023-03-30T03:09:07.680Z,15.57
2023-03-30T03:11:35.601Z,15.64
2023-03-30T03:14:03.547Z,15.60
2023-03-30T03:16:31.749Z,15.69
2023-03-30T03:19:01.510Z,15.68
2023-03-30T03:21:29.441Z,15.71
2023-03-30T03:23:57.357Z,15.71
2023-03-30T03:26:25.291Z,15.75
2023-03-30T03:28:53.369Z,15.73
2023-03-30T03:31:22.018Z,15.73
2023-03-30T03:33:52.898Z,15.72
2023-03-30T03:36:23.642Z,15.68
2023-03-30T03:38:52.222Z,15.62
2023-03-30T03:41:20.079Z,15.53
2023-03-30T03:43:47.955Z,15.49
2023-03-30T03:46:15.973Z,15.46
2023-03-30T03:48:43.881Z,15.38
2023-03-30T03:51:11.798Z,15.31
2023-03-30T03:53:41.103Z,15.38
2023-03-30T03:56:09.531Z,15.34
2023-03-30T03:58:37.401Z,15.29
2023-03-30T04:01:05.584Z,15.26
2023-03-30T04:03:33.719Z,15.20
2023-03-30T04:06:02.487Z,15.22
2023-03-30T04:08:30.495Z,15.18
2023-03-30T04:11:06.255Z,15.18
2023-03-30T04:13:39.557Z,14.35
2023-03-30T04:16:07.876Z,15.19
2023-03-30T04:18:35.872Z,15.20
2023-03-30T04:21:05.271Z,15.18
2023-03-30T04:23:33.831Z,15.20
2023-03-30T04:26:03.100Z,15.25
2023-03-30T04:28:31.895Z,15.29
2023-03-30T04:31:00.125Z,15.29
2023-03-30T04:33:28.554Z,15.30
2023-03-30T04:35:56.530Z,15.23
2023-03-30T04:38:24.401Z,15.00
2023-03-30T04:40:53.016Z,15.29
2023-03-30T04:43:22.899Z,15.30
2023-03-30T04:45:51.964Z,15.31
2023-03-30T04:48:19.970Z,15.36
2023-03-30T04:50:49.318Z,15.17
2023-03-30T04:53:17.487Z,15.36
2023-03-30T04:55:49.210Z,15.38
2023-03-30T04:58:17.175Z,15.36
2023-03-30T05:00:46.676Z,15.45
2023-03-30T05:03:14.907Z,15.47
2023-03-30T05:05:43.116Z,15.51
2023-03-30T05:08:11.034Z,15.55
2023-03-30T05:10:38.978Z,15.58
2023-03-30T05:13:06.939Z,15.60
2023-03-30T05:15:34.866Z,15.52
2023-03-30T05:18:04.225Z,15.49
2023-03-30T05:20:32.250Z,15.46
2023-03-30T05:23:00.405Z,15.43
2023-03-30T05:25:28.292Z,15.47
2023-03-30T05:27:56.179Z,15.50
2023-03-30T05:30:24.087Z,15.53
2023-03-30T05:32:52.204Z,15.53
2023-03-30T05:35:21.564Z,15.60
2023-03-30T05:37:50.070Z,15.61
2023-03-30T05:40:18.290Z,15.61
2023-03-30T05:42:46.329Z,15.58
2023-03-30T05:45:14.202Z,15.54
2023-03-30T05:47:42.158Z,15.51
2023-03-30T05:50:11.514Z,15.42
2023-03-30T05:52:41.278Z,15.41
2023-03-30T05:55:09.871Z,15.38
2023-03-30T05:57:38.482Z,15.32
2023-03-30T06:00:09.803Z,15.26
2023-03-30T06:02:37.785Z,15.27
2023-03-30T06:05:11.067Z,15.22
2023-03-30T06:07:43.540Z,15.31
2023-03-30T06:10:22.330Z,15.33
2023-03-30T06:12:50.259Z,15.38
2023-03-30T06:15:18.178Z,15.42
2023-03-30T06:17:46.823Z,15.42
2023-03-30T06:20:14.849Z,15.49
2023-03-30T06:22:44.732Z,15.55
2023-03-30T06:25:13.722Z,15.57
2023-03-30T06:27:44.545Z,15.66
2023-03-30T06:30:13.679Z,15.68
2023-03-30T06:32:41.879Z,15.68
2023-03-30T06:35:10.383Z,15.72
2023-03-30T06:37:38.302Z,15.77
2023-03-30T06:40:13.238Z,15.79
2023-03-30T06:42:45.460Z,15.78
2023-03-30T06:45:13.468Z,15.86
2023-03-30T06:47:44.959Z,15.87
2023-03-30T06:50:13.510Z,15.93
2023-03-30T06:52:41.641Z,15.96
2023-03-30T06:55:11.044Z,15.98
2023-03-30T06:57:38.975Z,15.99
2023-03-30T07:00:13.280Z,16.05
2023-03-30T07:02:41.380Z,16.09
2023-03-30T07:05:12.088Z,16.07
2023-03-30T07:07:40.907Z,16.17
2023-03-30T07:10:11.311Z,16.18
2023-03-30T07:12:39.233Z,16.18
2023-03-30T07:15:08.867Z,16.21
2023-03-30T07:17:39.402Z,16.20
2023-03-30T07:20:09.110Z,16.22
2023-03-30T07:22:37.668Z,16.21
2023-03-30T07:25:06.366Z,16.22
2023-03-30T07:27:39.620Z,16.26
2023-03-30T07:30:21.430Z,16.27
2023-03-30T07:32:50.636Z,16.31
2023-03-30T07:35:19.112Z,16.36
2023-03-30T07:37:50.850Z,16.35
2023-03-30T07:40:20.379Z,16.45
2023-03-30T07:42:50.941Z,16.52
2023-03-30T07:45:19.063Z,16.51
2023-03-30T07:47:49.421Z,16.58
2023-03-30T07:50:17.931Z,16.57
2023-03-30T07:52:46.122Z,16.62
2023-03-30T07:55:14.449Z,16.70
2023-03-30T07:57:42.695Z,16.80
2023-03-30T08:00:14.866Z,16.80
2023-03-30T08:02:44.947Z,16.87
2023-03-30T08:05:13.605Z,16.89
2023-03-30T08:07:42.002Z,16.91
2023-03-30T08:10:10.738Z,16.94
2023-03-30T08:12:38.755Z,16.91
2023-03-30T08:15:08.096Z,16.96
2023-03-30T08:17:38.686Z,16.93
2023-03-30T08:20:10.904Z,16.92
2023-03-30T08:22:38.911Z,16.85
2023-03-30T08:25:08.139Z,16.76
2023-03-30T08:27:36.747Z,16.83
2023-03-30T08:30:05.530Z,16.79
2023-03-30T08:32:35.568Z,16.86
2023-03-30T08:35:05.358Z,16.90
2023-03-30T08:37:34.041Z,16.94
2023-03-30T08:40:02.119Z,16.96
2023-03-30T08:42:39.788Z,17.05
2023-03-30T08:45:11.516Z,17.12
2023-03-30T08:47:47.111Z,17.07
2023-03-30T08:50:32.940Z,17.35
2023-03-30T08:53:04.928Z,17.50
2023-03-30T08:55:38.869Z,17.36
2023-03-30T08:58:09.252Z,17.65
2023-03-30T09:00:39.882Z,17.73
2023-03-30T09:03:15.978Z,17.77
2023-03-30T09:05:47.486Z,17.97
2023-03-30T09:08:17.571Z,18.01
2023-03-30T09:10:47.019Z,18.02
2023-03-30T09:13:16.938Z,17.84
2023-03-30T09:15:54.462Z,17.84
2023-03-30T09:18:23.872Z,17.47
2023-03-30T09:20:54.740Z,17.72
2023-03-30T09:23:25.627Z,17.76
2023-03-30T09:26:00.791Z,17.74
2023-03-30T09:28:34.858Z,17.87
2023-03-30T09:31:08.797Z,17.75
2023-03-30T09:33:43.278Z,18.00
2023-03-30T09:36:16.385Z,17.99
2023-03-30T09:38:44.538Z,17.85
2023-03-30T09:41:24.964Z,18.00
2023-03-30T09:43:53.001Z,18.07
2023-03-30T09:46:21.062Z,18.13
2023-03-30T09:48:50.086Z,18.17
2023-03-30T09:51:21.888Z,18.22
2023-03-30T09:53:50.767Z,18.23
2023-03-30T09:56:22.081Z,18.26
2023-03-30T09:58:50.141Z,18.33
2023-03-30T10:01:20.169Z,18.40
2023-03-30T10:04:07.862Z,18.48
2023-03-30T10:06:39.714Z,18.51
2023-03-30T10:09:09.738Z,18.49
2023-03-30T10:11:39.196Z,18.65
2023-03-30T10:14:09.722Z,18.68
2023-03-30T10:16:37.984Z,18.71
2023-03-30T10:19:06.756Z,18.72
2023-03-30T10:21:40.143Z,18.80
2023-03-30T10:24:18.689Z,18.91
2023-03-30T10:26:47.453Z,18.98
2023-03-30T10:29:18.428Z,19.01
2023-03-30T10:31:48.544Z,19.05
2023-03-30T10:34:18.915Z,19.13
2023-03-30T10:36:53.272Z,19.13
2023-03-30T10:39:24.246Z,19.27
2023-03-30T10:41:52.148Z,19.43
2023-03-30T10:44:23.856Z,19.51
2023-03-30T10:46:55.526Z,19.51
2023-03-30T10:49:29.359Z,19.49
2023-03-30T10:52:05.446Z,19.43
2023-03-30T10:54:35.135Z,19.53
2023-03-30T10:57:19.157Z,19.64
2023-03-30T11:00:01.451Z,19.69
2023-03-30T11:02:37.346Z,19.88
2023-03-30T11:05:07.539Z,20.27
2023-03-30T11:07:38.331Z,20.49
2023-03-30T11:10:07.708Z,20.69
2023-03-30T11:12:37.562Z,20.70
2023-03-30T11:15:07.994Z,20.77
2023-03-30T11:17:37.691Z,20.68
2023-03-30T11:20:16.334Z,20.72
2023-03-30T11:22:47.010Z,20.64
2023-03-30T11:25:21.390Z,20.50
2023-03-30T11:27:56.066Z,20.76
2023-03-30T11:30:28.031Z,21.11
2023-03-30T11:32:58.438Z,21.30
2023-03-30T11:35:33.233Z,21.63
2023-03-30T11:38:06.834Z,21.93
2023-03-30T11:40:39.581Z,21.84
2023-03-30T11:43:09.784Z,21.73
2023-03-30T11:45:43.930Z,21.22
2023-03-30T11:48:36.087Z,21.25
2023-03-30T11:51:14.365Z,21.00
2023-03-30T11:53:48.794Z,20.71
2023-03-30T11:56:23.049Z,20.78
2023-03-30T11:58:59.153Z,20.57
2023-03-30T12:01:35.818Z,20.69
2023-03-30T12:04:07.362Z,20.97
2023-03-30T12:06:47.526Z,21.31
2023-03-30T12:09:35.105Z,21.45
2023-03-30T12:12:12.013Z,21.41
2023-03-30T12:14:51.254Z,21.32
2023-03-30T12:17:26.908Z,21.27
2023-03-30T12:19:57.269Z,21.23
2023-03-30T12:22:28.461Z,21.22
2023-03-30T12:25:00.518Z,21.41
2023-03-30T12:27:31.341Z,21.45
2023-03-30T12:30:12.767Z,21.50
2023-03-30T12:32:57.798Z,21.59
2023-03-30T12:36:02.503Z,21.65
2023-03-30T12:38:38.602Z,21.45
2023-03-30T12:41:17.391Z,21.10
2023-03-30T12:44:20.876Z,20.66
2023-03-30T12:46:59.662Z,20.77
2023-03-30T12:49:33.825Z,19.70
2023-03-30T12:52:09.715Z,20.86
2023-03-30T12:54:58.757Z,21.15
2023-03-30T12:57:37.989Z,21.47
2023-03-30T13:00:48.172Z,21.46
2023-03-30T13:03:28.773Z,21.63
2023-03-30T13:05:57.417Z,21.83
2023-03-30T13:08:28.660Z,21.47
2023-03-30T13:11:10.337Z,22.17
2023-03-30T13:14:00.417Z,21.33
2023-03-30T13:17:16.281Z,22.18
2023-03-30T13:19:52.032Z,22.81
2023-03-30T13:22:33.004Z,23.01
2023-03-30T13:25:26.523Z,23.19
2023-03-30T13:27:58.708Z,23.83
2023-03-30T13:30:32.659Z,24.20
2023-03-30T13:33:10.489Z,24.51
2023-03-30T13:35:57.723Z,24.91
2023-03-30T13:38:36.377Z,25.23
2023-03-30T13:41:12.372Z,25.08
2023-03-30T13:44:02.405Z,24.42
2023-03-30T13:46:34.021Z,24.38
2023-03-30T13:49:12.716Z,24.24
2023-03-30T13:51:42.581Z,24.19
2023-03-30T13:54:17.785Z,24.32
2023-03-30T13:56:47.622Z,24.49
2023-03-30T13:59:17.022Z,24.71
2023-03-30T14:01:48.265Z,24.81
2023-03-30T14:04:16.645Z,24.95
2023-03-30T14:06:47.064Z,24.65
2023-03-30T14:09:16.255Z,24.72
2023-03-30T14:11:46.124Z,24.45
2023-03-30T14:14:19.143Z,24.29
2023-03-30T14:16:48.634Z,24.40
2023-03-30T14:19:21.948Z,24.24
2023-03-30T14:21:50.044Z,23.84
2023-03-30T14:24:19.226Z,23.44
2023-03-30T14:26:47.908Z,23.13
2023-03-30T14:29:30.419Z,22.74
2023-03-30T14:34:38.161Z,22.14
2023-03-30T14:37:07.594Z,22.02
2023-03-30T14:39:40.024Z,22.01
2023-03-30T14:42:16.662Z,22.07
2023-03-30T14:44:44.694Z,22.06
2023-03-30T14:47:19.722Z,21.93
2023-03-30T14:49:48.053Z,21.89
2023-03-30T14:52:17.982Z,21.68
2023-03-30T14:55:04.854Z,21.33
2023-03-30T14:57:37.997Z,21.12
2023-03-30T15:00:21.348Z,20.66
2023-03-30T15:02:52.819Z,20.77
2023-03-30T15:05:21.128Z,20.77
2023-03-30T15:07:49.811Z,20.79
2023-03-30T15:10:26.787Z,20.87
2023-03-30T15:12:56.323Z,20.83
2023-03-30T15:15:26.774Z,20.87
2023-03-30T15:17:56.197Z,20.75
2023-03-30T15:20:28.182Z,20.61
2023-03-30T15:22:56.776Z,20.45
2023-03-30T15:25:29.349Z,20.23
2023-03-30T15:27:59.173Z,20.10
2023-03-30T15:30:29.643Z,20.29
2023-03-30T15:32:59.172Z,20.24
2023-03-30T15:35:28.456Z,20.20
2023-03-30T15:37:57.226Z,20.05
2023-03-30T15:40:33.118Z,19.88
2023-03-30T15:43:17.292Z,19.82
2023-03-30T15:45:52.407Z,19.61
2023-03-30T15:48:23.521Z,19.66
2023-03-30T15:50:55.386Z,19.77
2023-03-30T15:53:32.402Z,19.83
2023-03-30T15:56:00.510Z,19.91
2023-03-30T15:58:29.321Z,19.97
2023-03-30T16:00:57.526Z,20.07
2023-03-30T16:03:39.389Z,20.03
2023-03-30T16:06:07.994Z,19.99
2023-03-30T16:08:35.940Z,19.90
2023-03-30T16:11:04.667Z,19.80
2023-03-30T16:13:32.771Z,19.88
2023-03-30T16:16:03.765Z,19.88
2023-03-30T16:18:31.625Z,19.94
2023-03-30T16:21:01.046Z,19.97
2023-03-30T16:23:28.970Z,19.92
2023-03-30T16:25:58.273Z,19.80
2023-03-30T16:28:26.295Z,19.66
2023-03-30T16:30:54.761Z,19.59
2023-03-30T16:33:23.388Z,19.55
2023-03-30T16:35:51.302Z,19.45
2023-03-30T16:38:20.853Z,19.38
2023-03-30T16:40:49.827Z,19.16
2023-03-30T16:43:17.783Z,19.15
2023-03-30T16:45:45.739Z,19.09
2023-03-30T16:48:15.225Z,19.04
2023-03-30T16:50:44.189Z,18.95
2023-03-30T16:53:12.487Z,18.78
2023-03-30T16:55:44.109Z,18.91
2023-03-30T16:58:14.457Z,18.80
2023-03-30T17:00:43.545Z,18.71
2023-03-30T17:03:11.739Z,18.74
2023-03-30T17:05:40.132Z,18.71
2023-03-30T17:08:09.080Z,18.69
2023-03-30T17:10:38.479Z,18.61
2023-03-30T17:13:09.343Z,18.53
2023-03-30T17:15:39.035Z,18.59
2023-03-30T17:18:09.213Z,18.56
2023-03-30T17:20:37.863Z,18.49
2023-03-30T17:23:05.938Z,18.46
2023-03-30T17:25:36.185Z,18.43
2023-03-30T17:28:08.468Z,18.28
2023-03-30T17:30:40.223Z,18.34
2023-03-30T17:33:10.620Z,18.26
2023-03-30T17:35:39.302Z,18.22
2023-03-30T17:38:08.878Z,18.25
2023-03-30T17:40:38.791Z,18.20
2023-03-30T17:43:07.179Z,18.11
2023-03-30T17:45:35.707Z,18.12
2023-03-30T17:48:05.527Z,18.10
2023-03-30T17:50:36.305Z,18.07
2023-03-30T17:53:04.234Z,18.04
2023-03-30T17:55:33.001Z,17.99
2023-03-30T17:58:00.927Z,17.97
2023-03-30T18:00:33.241Z,17.92
2023-03-30T18:03:03.924Z,17.80
2023-03-30T18:05:34.815Z,17.61
2023-03-30T18:08:02.720Z,17.61
2023-03-30T18:10:35.874Z,17.55
2023-03-30T18:13:03.728Z,17.48
2023-03-30T18:15:31.697Z,17.42
2023-03-30T18:18:00.224Z,17.33
2023-03-30T18:20:29.464Z,17.23
2023-03-30T18:22:58.686Z,17.10
2023-03-30T18:25:32.481Z,16.99
2023-03-30T18:28:00.716Z,16.82
2023-03-30T18:30:30.274Z,16.80
2023-03-30T18:32:58.234Z,16.68
2023-03-30T18:35:26.759Z,16.65
2023-03-30T18:37:54.932Z,16.51
2023-03-30T18:40:26.115Z,16.44
2023-03-30T18:42:54.206Z,16.44
2023-03-30T18:45:23.226Z,16.29
2023-03-30T18:47:51.196Z,16.03
2023-03-30T18:50:21.703Z,16.26
2023-03-30T18:52:49.617Z,16.23
2023-03-30T18:55:17.855Z,16.20
2023-03-30T18:57:47.105Z,16.17
2023-03-30T19:00:19.514Z,16.07
2023-03-30T19:02:47.696Z,16.17
2023-03-30T19:05:16.516Z,16.02
2023-03-30T19:07:44.517Z,16.05
2023-03-30T19:10:13.468Z,16.03
2023-03-30T19:12:41.574Z,15.96
2023-03-30T19:15:14.957Z,15.95
2023-03-30T19:17:42.925Z,15.95
2023-03-30T19:20:12.196Z,15.88
2023-03-30T19:22:40.047Z,15.91
2023-03-30T19:25:08.918Z,15.87
2023-03-30T19:27:36.824Z,15.80
2023-03-30T19:30:05.319Z,15.80
2023-03-30T19:32:34.740Z,15.78
2023-03-30T19:35:02.711Z,15.76
2023-03-30T19:37:30.535Z,15.77
2023-03-30T19:39:58.461Z,15.76
2023-03-30T19:42:28.796Z,15.78
2023-03-30T19:44:56.644Z,15.77
2023-03-30T19:47:24.869Z,15.77
2023-03-30T19:49:54.205Z,15.78
2023-03-30T19:52:22.117Z,15.79
2023-03-30T19:54:50.239Z,15.82
2023-03-30T19:57:18.247Z,15.81
2023-03-30T19:59:46.945Z,15.83
2023-03-30T20:02:15.686Z,15.78
2023-03-30T20:04:44.570Z,15.70
2023-03-30T20:07:14.043Z,15.85
2023-03-30T20:09:41.962Z,15.92
2023-03-30T20:12:09.967Z,15.87
2023-03-30T20:14:38.039Z,15.98
2023-03-30T20:17:10.213Z,16.02
2023-03-30T20:19:40.804Z,15.99
2023-03-30T20:22:09.592Z,15.97
2023-03-30T20:24:39.248Z,16.11
2023-03-30T20:27:07.452Z,16.11
2023-03-30T20:29:36.029Z,16.10
2023-03-30T20:32:04.070Z,16.12
2023-03-30T20:34:32.063Z,16.14
2023-03-30T20:36:59.929Z,16.09
2023-03-30T20:39:28.042Z,16.12
2023-03-30T20:41:59.029Z,16.23
2023-03-30T20:44:31.200Z,16.26
2023-03-30T20:46:59.311Z,16.26
2023-03-30T20:49:28.672Z,16.31
2023-03-30T20:52:00.810Z,16.30
2023-03-30T20:54:36.485Z,16.19
2023-03-30T20:57:05.856Z,16.19
2023-03-30T20:59:33.783Z,16.24
2023-03-30T21:02:03.482Z,16.19
2023-03-30T21:04:33.644Z,16.22
2023-03-30T21:07:01.601Z,16.18
2023-03-30T21:09:29.481Z,16.22
2023-03-30T21:11:57.398Z,16.20
2023-03-30T21:14:26.666Z,16.22
2023-03-30T21:16:54.725Z,16.26
2023-03-30T21:19:22.727Z,16.31
2023-03-30T21:21:50.594Z,16.34
2023-03-30T21:24:21.033Z,16.39
2023-03-30T21:26:48.928Z,16.40
2023-03-30T21:29:16.929Z,16.40
2023-03-30T21:31:46.182Z,16.43
2023-03-30T21:34:14.646Z,16.41
2023-03-30T21:36:42.700Z,16.35
2023-03-30T21:39:10.684Z,16.32
2023-03-30T21:41:38.747Z,16.36
2023-03-30T21:44:06.797Z,16.33
2023-03-30T21:46:34.755Z,16.26
2023-03-30T21:49:04.339Z,16.24
2023-03-30T21:51:32.374Z,16.19
2023-03-30T21:54:00.318Z,16.17
2023-03-30T21:56:29.101Z,16.11
2023-03-30T21:58:57.200Z,16.15
2023-03-30T22:01:25.162Z,16.06
2023-03-30T22:03:53.343Z,16.11
2023-03-30T22:06:22.965Z,16.09
2023-03-30T22:08:50.872Z,16.10
2023-03-30T22:11:20.016Z,16.03
2023-03-30T22:13:48.958Z,15.98
2023-03-30T22:16:18.662Z,15.96
2023-03-30T22:18:47.192Z,15.99
2023-03-30T22:21:17.045Z,15.94
2023-03-30T22:23:46.377Z,15.88
2023-03-30T22:26:14.431Z,15.93
2023-03-30T22:28:42.350Z,15.91
2023-03-30T22:31:10.355Z,15.85
2023-03-30T22:33:41.602Z,15.82
2023-03-30T22:36:17.191Z,15.79
2023-03-30T22:38:46.691Z,15.77
2023-03-30T22:41:14.634Z,15.73
2023-03-30T22:43:42.569Z,15.49
2023-03-30T22:46:10.872Z,15.72
2023-03-30T22:48:41.577Z,15.70
2023-03-30T22:51:09.687Z,15.74
2023-03-30T22:53:38.589Z,15.78
2023-03-30T22:56:08.732Z,15.79
2023-03-30T22:58:36.766Z,15.83
2023-03-30T23:01:06.040Z,15.89
2023-03-30T23:03:34.158Z,15.95
2023-03-30T23:06:02.070Z,15.98
2023-03-30T23:08:30.672Z,15.98
2023-03-30T23:11:04.009Z,16.02
2023-03-30T23:13:33.490Z,16.04
2023-03-30T23:16:01.563Z,16.06
2023-03-30T23:18:29.515Z,16.06
2023-03-30T23:20:58.072Z,16.09
2023-03-30T23:23:27.028Z,16.09
2023-03-30T23:25:54.884Z,16.10
2023-03-30T23:28:22.725Z,16.11
2023-03-30T23:30:51.984Z,16.13
2023-03-30T23:33:19.911Z,16.14
2023-03-30T23:35:49.982Z,16.10
2023-03-30T23:38:18.164Z,16.15
2023-03-30T23:40:46.467Z,16.20
2023-03-30T23:43:14.348Z,16.18
2023-03-30T23:45:43.500Z,16.15
2023-03-30T23:48:12.717Z,16.07
2023-03-30T23:50:41.237Z,16.13
2023-03-30T23:53:09.429Z,16.11
2023-03-30T23:55:37.668Z,16.08
2023-03-30T23:58:05.582Z,16.08
